sensor_id;sensor_type;location;lat;lon;timestamp;P1;durP1;ratioP1;P2;durP2;ratioP2
2622;SDS011;1321;48.690;9.022;2023-06-14T00:02:19;7.10;;;6.67;;
2622;SDS011;1321;48.690;9.022;2023-06-14T00:04:47;7.63;;;7.23;;
2622;SDS011;1321;48.690;9.022;2023-06-14T00:07:20;7.73;;;7.33;;
2622;SDS011;1321;48.690;9.022;2023-06-14T00:10:00;7.90;;;7.40;;
2622;SDS011;1321;48.690;9.022;2023-06-14T00:12:29;8.43;;;7.80;;
2622;SDS011;1321;48.690;9.022;2023-06-14T00:14:57;7.57;;;7.07;;
2622;SDS011;1321;48.690;9.022;2023-06-14T00:17:27;8.23;;;7.73;;
2622;SDS011;1321;48.690;9.022;2023-06-14T00:19:57;7.13;;;6.83;;
2622;SDS011;1321;48.690;9.022;2023-06-14T00:22:27;7.73;;;7.37;;
2622;SDS011;1321;48.690;9.022;2023-06-14T00:24:57;7.60;;;7.30;;
2622;SDS011;1321;48.690;9.022;2023-06-14T00:27:33;7.60;;;7.20;;
2622;SDS011;1321;48.690;9.022;2023-06-14T00:30:01;8.87;;;8.30;;
2622;SDS011;1321;48.690;9.022;2023-06-14T00:32:30;8.27;;;7.77;;
2622;SDS011;1321;48.690;9.022;2023-06-14T00:34:58;8.07;;;7.47;;
2622;SDS011;1321;48.690;9.022;2023-06-14T00:37:27;7.57;;;7.17;;
2622;SDS011;1321;48.690;9.022;2023-06-14T00:39:55;6.93;;;6.57;;
2622;SDS011;1321;48.690;9.022;2023-06-14T00:42:24;8.60;;;8.10;;
2622;SDS011;1321;48.690;9.022;2023-06-14T00:44:52;8.43;;;7.40;;
2622;SDS011;1321;48.690;9.022;2023-06-14T00:47:21;7.97;;;7.20;;
2622;SDS011;1321;48.690;9.022;2023-06-14T00:49:50;8.03;;;7.53;;
2622;SDS011;1321;48.690;9.022;2023-06-14T00:52:19;7.67;;;7.27;;
2622;SDS011;1321;48.690;9.022;2023-06-14T00:54:49;7.70;;;7.40;;
2622;SDS011;1321;48.690;9.022;2023-06-14T00:57:17;8.90;;;8.40;;
2622;SDS011;1321;48.690;9.022;2023-06-14T00:59:46;8.20;;;7.80;;
2622;SDS011;1321;48.690;9.022;2023-06-14T01:02:16;8.57;;;8.07;;
2622;SDS011;1321;48.690;9.022;2023-06-14T01:04:46;7.80;;;7.50;;
2622;SDS011;1321;48.690;9.022;2023-06-14T01:07:18;8.37;;;7.87;;
2622;SDS011;1321;48.690;9.022;2023-06-14T01:09:58;8.83;;;8.33;;
2622;SDS011;1321;48.690;9.022;2023-06-14T01:12:43;8.40;;;7.90;;
2622;SDS011;1321;48.690;9.022;2023-06-14T01:15:19;9.03;;;8.43;;
2622;SDS011;1321;48.690;9.022;2023-06-14T01:17:48;8.03;;;7.60;;
2622;SDS011;1321;48.690;9.022;2023-06-14T01:20:22;8.17;;;7.67;;
2622;SDS011;1321;48.690;9.022;2023-06-14T01:22:57;7.90;;;7.40;;
2622;SDS011;1321;48.690;9.022;2023-06-14T01:25:26;7.67;;;7.27;;
2622;SDS011;1321;48.690;9.022;2023-06-14T01:27:55;8.87;;;8.27;;
2622;SDS011;1321;48.690;9.022;2023-06-14T01:30:27;7.70;;;7.30;;
2622;SDS011;1321;48.690;9.022;2023-06-14T01:32:59;8.20;;;7.77;;
2622;SDS011;1321;48.690;9.022;2023-06-14T01:35:28;7.50;;;7.20;;
2622;SDS011;1321;48.690;9.022;2023-06-14T01:37:58;8.27;;;7.87;;
2622;SDS011;1321;48.690;9.022;2023-06-14T01:40:27;7.90;;;7.50;;
2622;SDS011;1321;48.690;9.022;2023-06-14T01:42:56;8.53;;;8.03;;
2622;SDS011;1321;48.690;9.022;2023-06-14T01:45:25;8.40;;;8.00;;
2622;SDS011;1321;48.690;9.022;2023-06-14T01:47:53;8.00;;;7.60;;
2622;SDS011;1321;48.690;9.022;2023-06-14T01:50:22;8.30;;;7.77;;
2622;SDS011;1321;48.690;9.022;2023-06-14T01:52:50;7.10;;;6.80;;
2622;SDS011;1321;48.690;9.022;2023-06-14T01:55:20;8.87;;;8.27;;
2622;SDS011;1321;48.690;9.022;2023-06-14T01:57:48;8.83;;;8.23;;
2622;SDS011;1321;48.690;9.022;2023-06-14T02:00:16;9.00;;;8.50;;
2622;SDS011;1321;48.690;9.022;2023-06-14T02:02:44;8.00;;;7.60;;
2622;SDS011;1321;48.690;9.022;2023-06-14T02:05:13;8.70;;;8.20;;
2622;SDS011;1321;48.690;9.022;2023-06-14T02:07:42;8.40;;;8.00;;
2622;SDS011;1321;48.690;9.022;2023-06-14T02:10:10;8.43;;;7.93;;
2622;SDS011;1321;48.690;9.022;2023-06-14T02:12:40;8.00;;;7.60;;
2622;SDS011;1321;48.690;9.022;2023-06-14T02:15:08;8.20;;;7.80;;
2622;SDS011;1321;48.690;9.022;2023-06-14T02:17:43;8.80;;;8.40;;
2622;SDS011;1321;48.690;9.022;2023-06-14T02:20:13;7.80;;;7.40;;
2622;SDS011;1321;48.690;9.022;2023-06-14T02:22:42;8.00;;;7.50;;
2622;SDS011;1321;48.690;9.022;2023-06-14T02:25:10;8.20;;;7.60;;
2622;SDS011;1321;48.690;9.022;2023-06-14T02:27:39;7.90;;;7.40;;
2622;SDS011;1321;48.690;9.022;2023-06-14T02:30:08;7.60;;;7.20;;
2622;SDS011;1321;48.690;9.022;2023-06-14T02:32:36;7.77;;;7.37;;
2622;SDS011;1321;48.690;9.022;2023-06-14T02:35:07;8.00;;;7.50;;
2622;SDS011;1321;48.690;9.022;2023-06-14T02:37:36;7.97;;;7.47;;
2622;SDS011;1321;48.690;9.022;2023-06-14T02:40:04;7.83;;;7.40;;
2622;SDS011;1321;48.690;9.022;2023-06-14T02:42:35;7.70;;;7.30;;
2622;SDS011;1321;48.690;9.022;2023-06-14T02:45:05;8.10;;;7.60;;
2622;SDS011;1321;48.690;9.022;2023-06-14T02:47:34;7.73;;;7.33;;
2622;SDS011;1321;48.690;9.022;2023-06-14T02:50:03;7.83;;;7.43;;
2622;SDS011;1321;48.690;9.022;2023-06-14T02:52:31;7.80;;;7.40;;
2622;SDS011;1321;48.690;9.022;2023-06-14T02:54:59;8.00;;;7.50;;
2622;SDS011;1321;48.690;9.022;2023-06-14T02:57:27;8.40;;;8.00;;
2622;SDS011;1321;48.690;9.022;2023-06-14T02:59:55;8.10;;;7.70;;
2622;SDS011;1321;48.690;9.022;2023-06-14T03:02:25;7.80;;;7.40;;
2622;SDS011;1321;48.690;9.022;2023-06-14T03:04:53;8.33;;;7.83;;
2622;SDS011;1321;48.690;9.022;2023-06-14T03:07:22;7.90;;;7.50;;
2622;SDS011;1321;48.690;9.022;2023-06-14T03:09:51;7.97;;;7.57;;
2622;SDS011;1321;48.690;9.022;2023-06-14T03:12:19;8.63;;;7.93;;
2622;SDS011;1321;48.690;9.022;2023-06-14T03:14:48;8.33;;;7.83;;
2622;SDS011;1321;48.690;9.022;2023-06-14T03:17:17;8.57;;;8.07;;
2622;SDS011;1321;48.690;9.022;2023-06-14T03:19:47;8.37;;;7.87;;
2622;SDS011;1321;48.690;9.022;2023-06-14T03:22:15;8.70;;;8.20;;
2622;SDS011;1321;48.690;9.022;2023-06-14T03:24:43;8.73;;;8.23;;
2622;SDS011;1321;48.690;9.022;2023-06-14T03:27:11;8.83;;;8.43;;
2622;SDS011;1321;48.690;9.022;2023-06-14T03:29:40;8.60;;;8.03;;
2622;SDS011;1321;48.690;9.022;2023-06-14T03:32:08;9.27;;;8.47;;
2622;SDS011;1321;48.690;9.022;2023-06-14T03:34:37;8.90;;;8.40;;
2622;SDS011;1321;48.690;9.022;2023-06-14T03:37:07;8.70;;;8.20;;
2622;SDS011;1321;48.690;9.022;2023-06-14T03:39:35;8.80;;;8.30;;
2622;SDS011;1321;48.690;9.022;2023-06-14T03:42:04;9.43;;;8.83;;
2622;SDS011;1321;48.690;9.022;2023-06-14T03:44:33;8.73;;;8.30;;
2622;SDS011;1321;48.690;9.022;2023-06-14T03:47:01;9.37;;;8.63;;
2622;SDS011;1321;48.690;9.022;2023-06-14T03:49:29;8.77;;;8.10;;
2622;SDS011;1321;48.690;9.022;2023-06-14T03:51:58;9.33;;;8.80;;
2622;SDS011;1321;48.690;9.022;2023-06-14T03:54:27;9.53;;;8.77;;
2622;SDS011;1321;48.690;9.022;2023-06-14T03:57:16;9.27;;;8.70;;
2622;SDS011;1321;48.690;9.022;2023-06-14T03:59:44;8.90;;;8.13;;
2622;SDS011;1321;48.690;9.022;2023-06-14T04:02:13;8.60;;;8.20;;
2622;SDS011;1321;48.690;9.022;2023-06-14T04:04:42;9.97;;;9.37;;
2622;SDS011;1321;48.690;9.022;2023-06-14T04:07:11;9.50;;;8.70;;
2622;SDS011;1321;48.690;9.022;2023-06-14T04:09:41;10.50;;;9.80;;
2622;SDS011;1321;48.690;9.022;2023-06-14T04:12:10;10.03;;;9.43;;
2622;SDS011;1321;48.690;9.022;2023-06-14T04:14:38;9.87;;;9.27;;
2622;SDS011;1321;48.690;9.022;2023-06-14T04:17:07;9.90;;;9.40;;
2622;SDS011;1321;48.690;9.022;2023-06-14T04:19:35;9.80;;;9.20;;
2622;SDS011;1321;48.690;9.022;2023-06-14T04:22:03;9.90;;;9.47;;
2622;SDS011;1321;48.690;9.022;2023-06-14T04:24:32;10.93;;;10.20;;
2622;SDS011;1321;48.690;9.022;2023-06-14T04:27:02;10.77;;;10.17;;
2622;SDS011;1321;48.690;9.022;2023-06-14T04:29:33;10.67;;;10.00;;
2622;SDS011;1321;48.690;9.022;2023-06-14T04:32:01;10.70;;;10.10;;
2622;SDS011;1321;48.690;9.022;2023-06-14T04:34:32;12.30;;;11.20;;
2622;SDS011;1321;48.690;9.022;2023-06-14T04:37:01;10.57;;;9.90;;
2622;SDS011;1321;48.690;9.022;2023-06-14T04:39:29;11.17;;;10.30;;
2622;SDS011;1321;48.690;9.022;2023-06-14T04:41:57;10.90;;;10.30;;
2622;SDS011;1321;48.690;9.022;2023-06-14T04:44:28;11.10;;;10.27;;
2622;SDS011;1321;48.690;9.022;2023-06-14T04:46:58;11.17;;;10.43;;
2622;SDS011;1321;48.690;9.022;2023-06-14T04:49:26;11.63;;;10.93;;
2622;SDS011;1321;48.690;9.022;2023-06-14T04:51:58;11.10;;;10.50;;
2622;SDS011;1321;48.690;9.022;2023-06-14T04:54:28;10.70;;;10.00;;
2622;SDS011;1321;48.690;9.022;2023-06-14T04:56:58;11.23;;;10.50;;
2622;SDS011;1321;48.690;9.022;2023-06-14T04:59:27;11.20;;;10.40;;
2622;SDS011;1321;48.690;9.022;2023-06-14T05:01:59;11.63;;;10.80;;
2622;SDS011;1321;48.690;9.022;2023-06-14T05:04:27;12.33;;;11.23;;
2622;SDS011;1321;48.690;9.022;2023-06-14T05:06:55;10.60;;;10.00;;
2622;SDS011;1321;48.690;9.022;2023-06-14T05:09:24;11.10;;;10.40;;
2622;SDS011;1321;48.690;9.022;2023-06-14T05:11:52;11.70;;;10.70;;
2622;SDS011;1321;48.690;9.022;2023-06-14T05:14:20;11.50;;;10.80;;
2622;SDS011;1321;48.690;9.022;2023-06-14T05:16:50;12.67;;;11.87;;
2622;SDS011;1321;48.690;9.022;2023-06-14T05:19:18;11.23;;;10.60;;
2622;SDS011;1321;48.690;9.022;2023-06-14T05:25:52;11.70;;;10.90;;
2622;SDS011;1321;48.690;9.022;2023-06-14T05:36:23;11.67;;;10.63;;
2622;SDS011;1321;48.690;9.022;2023-06-14T05:41:41;11.27;;;10.57;;
2622;SDS011;1321;48.690;9.022;2023-06-14T05:44:13;11.30;;;10.70;;
2622;SDS011;1321;48.690;9.022;2023-06-14T05:46:41;10.97;;;10.27;;
2622;SDS011;1321;48.690;9.022;2023-06-14T05:56:13;10.43;;;9.90;;
2622;SDS011;1321;48.690;9.022;2023-06-14T05:58:43;10.50;;;9.90;;
2622;SDS011;1321;48.690;9.022;2023-06-14T06:01:20;10.30;;;9.70;;
2622;SDS011;1321;48.690;9.022;2023-06-14T06:04:23;9.73;;;9.33;;
2622;SDS011;1321;48.690;9.022;2023-06-14T06:06:52;10.83;;;10.27;;
2622;SDS011;1321;48.690;9.022;2023-06-14T06:13:48;10.07;;;9.60;;
2622;SDS011;1321;48.690;9.022;2023-06-14T06:16:38;10.47;;;9.97;;
2622;SDS011;1321;48.690;9.022;2023-06-14T06:19:38;9.90;;;9.40;;
2622;SDS011;1321;48.690;9.022;2023-06-14T06:22:06;10.50;;;9.80;;
2622;SDS011;1321;48.690;9.022;2023-06-14T06:28:02;9.63;;;9.20;;
2622;SDS011;1321;48.690;9.022;2023-06-14T06:30:32;10.27;;;9.60;;
2622;SDS011;1321;48.690;9.022;2023-06-14T06:36:30;9.20;;;8.80;;
2622;SDS011;1321;48.690;9.022;2023-06-14T06:39:13;10.23;;;9.73;;
2622;SDS011;1321;48.690;9.022;2023-06-14T06:41:44;9.40;;;9.00;;
2622;SDS011;1321;48.690;9.022;2023-06-14T06:54:30;9.40;;;9.00;;
2622;SDS011;1321;48.690;9.022;2023-06-14T07:17:07;9.20;;;8.70;;
2622;SDS011;1321;48.690;9.022;2023-06-14T07:19:58;8.80;;;8.40;;
2622;SDS011;1321;48.690;9.022;2023-06-14T07:22:27;9.73;;;8.90;;
2622;SDS011;1321;48.690;9.022;2023-06-14T07:24:55;8.37;;;7.93;;
2622;SDS011;1321;48.690;9.022;2023-06-14T07:27:23;8.47;;;7.97;;
2622;SDS011;1321;48.690;9.022;2023-06-14T07:29:51;8.17;;;7.67;;
2622;SDS011;1321;48.690;9.022;2023-06-14T07:32:21;7.50;;;7.20;;
2622;SDS011;1321;48.690;9.022;2023-06-14T07:34:49;9.43;;;8.63;;
2622;SDS011;1321;48.690;9.022;2023-06-14T07:37:17;8.43;;;7.97;;
2622;SDS011;1321;48.690;9.022;2023-06-14T07:39:45;8.53;;;8.13;;
2622;SDS011;1321;48.690;9.022;2023-06-14T07:42:13;8.90;;;8.23;;
2622;SDS011;1321;48.690;9.022;2023-06-14T07:44:41;8.83;;;8.33;;
2622;SDS011;1321;48.690;9.022;2023-06-14T07:47:09;8.03;;;7.70;;
2622;SDS011;1321;48.690;9.022;2023-06-14T07:49:39;8.80;;;8.40;;
2622;SDS011;1321;48.690;9.022;2023-06-14T07:52:07;8.23;;;7.93;;
2622;SDS011;1321;48.690;9.022;2023-06-14T07:54:36;8.83;;;8.43;;
2622;SDS011;1321;48.690;9.022;2023-06-14T07:57:04;9.70;;;9.10;;
2622;SDS011;1321;48.690;9.022;2023-06-14T07:59:33;9.50;;;9.10;;
2622;SDS011;1321;48.690;9.022;2023-06-14T08:02:01;8.90;;;8.40;;
2622;SDS011;1321;48.690;9.022;2023-06-14T08:04:30;8.57;;;8.17;;
2622;SDS011;1321;48.690;9.022;2023-06-14T08:07:00;9.27;;;8.83;;
2622;SDS011;1321;48.690;9.022;2023-06-14T08:09:30;9.80;;;9.20;;
2622;SDS011;1321;48.690;9.022;2023-06-14T08:11:59;9.63;;;9.20;;
2622;SDS011;1321;48.690;9.022;2023-06-14T08:14:27;10.10;;;9.20;;
2622;SDS011;1321;48.690;9.022;2023-06-14T08:16:55;10.30;;;9.80;;
2622;SDS011;1321;48.690;9.022;2023-06-14T08:19:23;9.93;;;9.33;;
2622;SDS011;1321;48.690;9.022;2023-06-14T08:21:51;10.00;;;9.30;;
2622;SDS011;1321;48.690;9.022;2023-06-14T08:24:22;10.40;;;9.80;;
2622;SDS011;1321;48.690;9.022;2023-06-14T08:26:51;9.57;;;9.07;;
2622;SDS011;1321;48.690;9.022;2023-06-14T08:29:19;9.50;;;9.00;;
2622;SDS011;1321;48.690;9.022;2023-06-14T08:31:47;11.33;;;10.17;;
2622;SDS011;1321;48.690;9.022;2023-06-14T08:34:15;11.00;;;10.00;;
2622;SDS011;1321;48.690;9.022;2023-06-14T08:36:44;10.37;;;9.70;;
2622;SDS011;1321;48.690;9.022;2023-06-14T08:39:12;10.83;;;9.73;;
2622;SDS011;1321;48.690;9.022;2023-06-14T08:41:41;10.47;;;9.87;;
2622;SDS011;1321;48.690;9.022;2023-06-14T08:44:13;10.83;;;10.13;;
2622;SDS011;1321;48.690;9.022;2023-06-14T08:46:42;10.87;;;10.20;;
2622;SDS011;1321;48.690;9.022;2023-06-14T08:49:11;10.67;;;10.07;;
2622;SDS011;1321;48.690;9.022;2023-06-14T08:51:40;10.30;;;9.50;;
2622;SDS011;1321;48.690;9.022;2023-06-14T08:54:09;10.23;;;9.63;;
2622;SDS011;1321;48.690;9.022;2023-06-14T08:56:39;10.00;;;9.50;;
2622;SDS011;1321;48.690;9.022;2023-06-14T08:59:10;10.33;;;9.83;;
2622;SDS011;1321;48.690;9.022;2023-06-14T09:01:38;10.70;;;10.03;;
2622;SDS011;1321;48.690;9.022;2023-06-14T09:04:21;9.70;;;9.30;;
2622;SDS011;1321;48.690;9.022;2023-06-14T09:06:50;9.87;;;9.20;;
2622;SDS011;1321;48.690;9.022;2023-06-14T09:09:19;10.37;;;9.77;;
2622;SDS011;1321;48.690;9.022;2023-06-14T09:11:50;11.07;;;10.27;;
2622;SDS011;1321;48.690;9.022;2023-06-14T09:14:18;10.67;;;10.17;;
2622;SDS011;1321;48.690;9.022;2023-06-14T09:16:52;10.47;;;10.07;;
2622;SDS011;1321;48.690;9.022;2023-06-14T09:19:21;10.27;;;9.73;;
2622;SDS011;1321;48.690;9.022;2023-06-14T09:21:50;10.53;;;10.03;;
2622;SDS011;1321;48.690;9.022;2023-06-14T09:24:19;11.57;;;10.73;;
2622;SDS011;1321;48.690;9.022;2023-06-14T09:26:47;10.67;;;10.17;;
2622;SDS011;1321;48.690;9.022;2023-06-14T09:29:19;11.00;;;10.40;;
2622;SDS011;1321;48.690;9.022;2023-06-14T09:31:47;10.03;;;9.53;;
2622;SDS011;1321;48.690;9.022;2023-06-14T09:34:15;11.20;;;10.40;;
2622;SDS011;1321;48.690;9.022;2023-06-14T09:36:44;10.43;;;9.93;;
2622;SDS011;1321;48.690;9.022;2023-06-14T09:39:17;10.60;;;9.97;;
2622;SDS011;1321;48.690;9.022;2023-06-14T09:41:47;10.70;;;10.20;;
2622;SDS011;1321;48.690;9.022;2023-06-14T09:44:15;10.40;;;9.83;;
2622;SDS011;1321;48.690;9.022;2023-06-14T09:46:48;10.43;;;9.93;;
2622;SDS011;1321;48.690;9.022;2023-06-14T09:49:18;10.10;;;9.50;;
2622;SDS011;1321;48.690;9.022;2023-06-14T09:51:47;10.50;;;9.77;;
2622;SDS011;1321;48.690;9.022;2023-06-14T09:54:20;9.83;;;9.40;;
2622;SDS011;1321;48.690;9.022;2023-06-14T09:56:49;10.70;;;9.70;;
2622;SDS011;1321;48.690;9.022;2023-06-14T09:59:19;9.57;;;9.07;;
2622;SDS011;1321;48.690;9.022;2023-06-14T10:01:57;9.60;;;9.00;;
2622;SDS011;1321;48.690;9.022;2023-06-14T10:04:29;9.57;;;8.97;;
2622;SDS011;1321;48.690;9.022;2023-06-14T10:06:58;11.00;;;10.43;;
2622;SDS011;1321;48.690;9.022;2023-06-14T10:09:29;10.13;;;9.53;;
2622;SDS011;1321;48.690;9.022;2023-06-14T10:11:58;9.23;;;8.83;;
2622;SDS011;1321;48.690;9.022;2023-06-14T10:14:27;9.90;;;9.40;;
2622;SDS011;1321;48.690;9.022;2023-06-14T10:17:00;8.93;;;8.53;;
2622;SDS011;1321;48.690;9.022;2023-06-14T10:19:40;9.70;;;8.80;;
2622;SDS011;1321;48.690;9.022;2023-06-14T10:22:14;8.77;;;8.33;;
2622;SDS011;1321;48.690;9.022;2023-06-14T10:24:49;10.07;;;9.47;;
2622;SDS011;1321;48.690;9.022;2023-06-14T10:27:17;9.20;;;8.80;;
2622;SDS011;1321;48.690;9.022;2023-06-14T10:30:01;10.30;;;9.80;;
2622;SDS011;1321;48.690;9.022;2023-06-14T10:32:33;9.10;;;8.70;;
2622;SDS011;1321;48.690;9.022;2023-06-14T10:35:02;9.60;;;9.10;;
2622;SDS011;1321;48.690;9.022;2023-06-14T10:37:33;9.20;;;8.80;;
2622;SDS011;1321;48.690;9.022;2023-06-14T10:40:02;9.00;;;8.70;;
2622;SDS011;1321;48.690;9.022;2023-06-14T10:42:32;9.20;;;8.90;;
2622;SDS011;1321;48.690;9.022;2023-06-14T10:45:00;9.40;;;9.00;;
2622;SDS011;1321;48.690;9.022;2023-06-14T10:47:29;9.97;;;9.57;;
2622;SDS011;1321;48.690;9.022;2023-06-14T10:50:04;8.43;;;8.03;;
2622;SDS011;1321;48.690;9.022;2023-06-14T10:52:34;8.97;;;8.57;;
2622;SDS011;1321;48.690;9.022;2023-06-14T10:55:06;9.77;;;8.97;;
2622;SDS011;1321;48.690;9.022;2023-06-14T10:57:42;9.63;;;9.03;;
2622;SDS011;1321;48.690;9.022;2023-06-14T11:00:17;9.37;;;8.97;;
2622;SDS011;1321;48.690;9.022;2023-06-14T11:05:56;9.73;;;9.07;;
2622;SDS011;1321;48.690;9.022;2023-06-14T11:08:27;8.90;;;8.50;;
2622;SDS011;1321;48.690;9.022;2023-06-14T11:11:31;8.87;;;8.43;;
2622;SDS011;1321;48.690;9.022;2023-06-14T11:14:01;8.90;;;8.50;;
2622;SDS011;1321;48.690;9.022;2023-06-14T11:16:34;8.57;;;8.17;;
2622;SDS011;1321;48.690;9.022;2023-06-14T11:19:07;9.00;;;8.50;;
2622;SDS011;1321;48.690;9.022;2023-06-14T11:21:41;9.10;;;8.53;;
2622;SDS011;1321;48.690;9.022;2023-06-14T11:24:14;9.07;;;8.17;;
2622;SDS011;1321;48.690;9.022;2023-06-14T11:26:42;8.60;;;8.00;;
2622;SDS011;1321;48.690;9.022;2023-06-14T11:29:11;8.47;;;8.07;;
2622;SDS011;1321;48.690;9.022;2023-06-14T11:31:42;11.03;;;8.97;;
2622;SDS011;1321;48.690;9.022;2023-06-14T11:34:11;9.23;;;8.43;;
2622;SDS011;1321;48.690;9.022;2023-06-14T11:36:40;9.10;;;8.60;;
2622;SDS011;1321;48.690;9.022;2023-06-14T11:39:09;8.03;;;7.73;;
2622;SDS011;1321;48.690;9.022;2023-06-14T11:41:38;8.73;;;8.23;;
2622;SDS011;1321;48.690;9.022;2023-06-14T11:44:07;8.70;;;8.40;;
2622;SDS011;1321;48.690;9.022;2023-06-14T11:46:39;8.77;;;8.37;;
2622;SDS011;1321;48.690;9.022;2023-06-14T11:49:07;9.27;;;8.77;;
2622;SDS011;1321;48.690;9.022;2023-06-14T11:51:36;9.50;;;9.10;;
2622;SDS011;1321;48.690;9.022;2023-06-14T11:54:06;10.00;;;9.33;;
2622;SDS011;1321;48.690;9.022;2023-06-14T11:56:43;9.83;;;8.53;;
2622;SDS011;1321;48.690;9.022;2023-06-14T11:59:12;25.00;;;17.27;;
2622;SDS011;1321;48.690;9.022;2023-06-14T12:01:42;16.40;;;11.47;;
2622;SDS011;1321;48.690;9.022;2023-06-14T12:04:25;9.20;;;8.60;;
2622;SDS011;1321;48.690;9.022;2023-06-14T12:07:08;9.30;;;8.90;;
2622;SDS011;1321;48.690;9.022;2023-06-14T12:09:40;8.83;;;8.43;;
2622;SDS011;1321;48.690;9.022;2023-06-14T12:12:17;10.00;;;9.20;;
2622;SDS011;1321;48.690;9.022;2023-06-14T12:14:52;9.33;;;8.93;;
2622;SDS011;1321;48.690;9.022;2023-06-14T12:17:31;10.00;;;9.20;;
2622;SDS011;1321;48.690;9.022;2023-06-14T12:20:05;11.37;;;10.40;;
2622;SDS011;1321;48.690;9.022;2023-06-14T12:22:52;10.43;;;9.83;;
2622;SDS011;1321;48.690;9.022;2023-06-14T12:25:25;10.03;;;9.40;;
2622;SDS011;1321;48.690;9.022;2023-06-14T12:27:55;8.40;;;8.00;;
2622;SDS011;1321;48.690;9.022;2023-06-14T12:30:29;9.73;;;9.07;;
2622;SDS011;1321;48.690;9.022;2023-06-14T12:32:58;9.10;;;8.40;;
2622;SDS011;1321;48.690;9.022;2023-06-14T12:35:27;8.53;;;8.13;;
2622;SDS011;1321;48.690;9.022;2023-06-14T12:37:57;8.83;;;8.33;;
2622;SDS011;1321;48.690;9.022;2023-06-14T12:43:27;8.80;;;8.30;;
2622;SDS011;1321;48.690;9.022;2023-06-14T12:45:58;9.50;;;9.10;;
2622;SDS011;1321;48.690;9.022;2023-06-14T12:48:26;8.27;;;7.87;;
2622;SDS011;1321;48.690;9.022;2023-06-14T12:51:10;8.73;;;8.23;;
2622;SDS011;1321;48.690;9.022;2023-06-14T12:53:39;8.93;;;8.43;;
2622;SDS011;1321;48.690;9.022;2023-06-14T12:56:14;9.40;;;8.73;;
2622;SDS011;1321;48.690;9.022;2023-06-14T12:58:45;7.83;;;7.63;;
2622;SDS011;1321;48.690;9.022;2023-06-14T13:01:16;8.60;;;8.20;;
2622;SDS011;1321;48.690;9.022;2023-06-14T13:03:44;9.20;;;8.70;;
2622;SDS011;1321;48.690;9.022;2023-06-14T13:06:20;9.20;;;8.57;;
2622;SDS011;1321;48.690;9.022;2023-06-14T13:08:52;8.90;;;8.40;;
2622;SDS011;1321;48.690;9.022;2023-06-14T13:11:36;8.50;;;8.10;;
2622;SDS011;1321;48.690;9.022;2023-06-14T13:14:05;8.80;;;8.30;;
2622;SDS011;1321;48.690;9.022;2023-06-14T13:16:51;8.97;;;8.47;;
2622;SDS011;1321;48.690;9.022;2023-06-14T13:19:19;8.20;;;7.83;;
2622;SDS011;1321;48.690;9.022;2023-06-14T13:27:50;7.57;;;7.17;;
2622;SDS011;1321;48.690;9.022;2023-06-14T13:33:12;8.37;;;7.77;;
2622;SDS011;1321;48.690;9.022;2023-06-14T13:42:13;8.60;;;8.20;;
2622;SDS011;1321;48.690;9.022;2023-06-14T13:44:42;8.30;;;7.80;;
2622;SDS011;1321;48.690;9.022;2023-06-14T13:47:10;6.73;;;6.50;;
2622;SDS011;1321;48.690;9.022;2023-06-14T13:53:24;7.80;;;7.40;;
2622;SDS011;1321;48.690;9.022;2023-06-14T13:56:40;7.47;;;6.97;;
2622;SDS011;1321;48.690;9.022;2023-06-14T13:59:33;7.37;;;7.00;;
2622;SDS011;1321;48.690;9.022;2023-06-14T14:02:15;6.97;;;6.63;;
2622;SDS011;1321;48.690;9.022;2023-06-14T14:08:47;7.67;;;7.37;;
2622;SDS011;1321;48.690;9.022;2023-06-14T14:11:37;7.40;;;7.10;;
2622;SDS011;1321;48.690;9.022;2023-06-14T14:14:06;8.47;;;7.97;;
2622;SDS011;1321;48.690;9.022;2023-06-14T14:16:34;8.67;;;8.07;;
2622;SDS011;1321;48.690;9.022;2023-06-14T14:19:05;7.77;;;7.40;;
2622;SDS011;1321;48.690;9.022;2023-06-14T14:21:33;8.20;;;7.60;;
2622;SDS011;1321;48.690;9.022;2023-06-14T14:24:02;8.67;;;8.10;;
2622;SDS011;1321;48.690;9.022;2023-06-14T14:26:31;8.57;;;8.07;;
2622;SDS011;1321;48.690;9.022;2023-06-14T14:28:59;8.27;;;7.90;;
2622;SDS011;1321;48.690;9.022;2023-06-14T14:31:28;6.37;;;6.17;;
2622;SDS011;1321;48.690;9.022;2023-06-14T14:33:57;7.93;;;7.47;;
2622;SDS011;1321;48.690;9.022;2023-06-14T14:36:29;7.83;;;7.30;;
2622;SDS011;1321;48.690;9.022;2023-06-14T14:38:57;7.50;;;7.10;;
2622;SDS011;1321;48.690;9.022;2023-06-14T14:41:25;8.40;;;8.00;;
2622;SDS011;1321;48.690;9.022;2023-06-14T14:43:55;8.00;;;7.57;;
2622;SDS011;1321;48.690;9.022;2023-06-14T14:46:23;8.03;;;7.67;;
2622;SDS011;1321;48.690;9.022;2023-06-14T14:48:51;8.13;;;7.73;;
2622;SDS011;1321;48.690;9.022;2023-06-14T14:51:19;8.57;;;8.10;;
2622;SDS011;1321;48.690;9.022;2023-06-14T14:53:49;7.60;;;7.30;;
2622;SDS011;1321;48.690;9.022;2023-06-14T14:56:21;7.80;;;7.50;;
2622;SDS011;1321;48.690;9.022;2023-06-14T14:58:50;8.70;;;8.20;;
2622;SDS011;1321;48.690;9.022;2023-06-14T15:01:18;7.60;;;7.23;;
2622;SDS011;1321;48.690;9.022;2023-06-14T15:03:46;7.40;;;7.00;;
2622;SDS011;1321;48.690;9.022;2023-06-14T15:06:25;7.60;;;7.20;;
2622;SDS011;1321;48.690;9.022;2023-06-14T15:08:55;7.63;;;7.17;;
2622;SDS011;1321;48.690;9.022;2023-06-14T15:11:23;8.03;;;7.63;;
2622;SDS011;1321;48.690;9.022;2023-06-14T15:13:52;7.93;;;7.53;;
2622;SDS011;1321;48.690;9.022;2023-06-14T15:19:39;8.00;;;7.67;;
2622;SDS011;1321;48.690;9.022;2023-06-14T15:25:29;7.97;;;7.53;;
2622;SDS011;1321;48.690;9.022;2023-06-14T15:32:00;7.97;;;7.57;;
2622;SDS011;1321;48.690;9.022;2023-06-14T15:34:29;6.80;;;6.40;;
2622;SDS011;1321;48.690;9.022;2023-06-14T15:39:53;7.13;;;6.87;;
2622;SDS011;1321;48.690;9.022;2023-06-14T15:42:23;8.13;;;7.53;;
2622;SDS011;1321;48.690;9.022;2023-06-14T15:44:51;7.60;;;7.20;;
2622;SDS011;1321;48.690;9.022;2023-06-14T15:51:53;7.90;;;7.50;;
2622;SDS011;1321;48.690;9.022;2023-06-14T15:57:18;8.13;;;7.60;;
2622;SDS011;1321;48.690;9.022;2023-06-14T15:59:47;8.40;;;8.00;;
2622;SDS011;1321;48.690;9.022;2023-06-14T16:02:16;8.30;;;7.80;;
2622;SDS011;1321;48.690;9.022;2023-06-14T16:04:44;7.70;;;7.33;;
2622;SDS011;1321;48.690;9.022;2023-06-14T16:07:13;7.53;;;7.03;;
2622;SDS011;1321;48.690;9.022;2023-06-14T16:09:41;8.23;;;7.77;;
2622;SDS011;1321;48.690;9.022;2023-06-14T16:12:10;7.20;;;6.90;;
2622;SDS011;1321;48.690;9.022;2023-06-14T16:14:39;7.70;;;7.30;;
2622;SDS011;1321;48.690;9.022;2023-06-14T16:17:09;7.80;;;7.50;;
2622;SDS011;1321;48.690;9.022;2023-06-14T16:19:37;7.60;;;7.00;;
2622;SDS011;1321;48.690;9.022;2023-06-14T16:22:06;7.27;;;6.87;;
2622;SDS011;1321;48.690;9.022;2023-06-14T16:24:34;7.90;;;7.50;;
2622;SDS011;1321;48.690;9.022;2023-06-14T16:27:56;7.80;;;7.47;;
2622;SDS011;1321;48.690;9.022;2023-06-14T16:33:40;7.50;;;7.20;;
2622;SDS011;1321;48.690;9.022;2023-06-14T16:39:53;7.50;;;7.10;;
2622;SDS011;1321;48.690;9.022;2023-06-14T16:49:16;8.30;;;7.90;;
2622;SDS011;1321;48.690;9.022;2023-06-14T16:52:07;7.50;;;7.10;;
2622;SDS011;1321;48.690;9.022;2023-06-14T16:55:52;8.83;;;8.23;;
2622;SDS011;1321;48.690;9.022;2023-06-14T16:58:20;7.50;;;7.10;;
2622;SDS011;1321;48.690;9.022;2023-06-14T17:00:58;8.60;;;8.10;;
2622;SDS011;1321;48.690;9.022;2023-06-14T17:03:27;8.17;;;7.70;;
2622;SDS011;1321;48.690;9.022;2023-06-14T17:10:18;7.70;;;7.40;;
2622;SDS011;1321;48.690;9.022;2023-06-14T17:12:47;7.47;;;6.87;;
2622;SDS011;1321;48.690;9.022;2023-06-14T17:15:28;8.20;;;7.70;;
2622;SDS011;1321;48.690;9.022;2023-06-14T17:17:56;8.17;;;7.50;;
2622;SDS011;1321;48.690;9.022;2023-06-14T17:23:37;7.83;;;7.50;;
2622;SDS011;1321;48.690;9.022;2023-06-14T17:26:28;6.90;;;6.70;;
2622;SDS011;1321;48.690;9.022;2023-06-14T17:30:19;7.77;;;7.30;;
2622;SDS011;1321;48.690;9.022;2023-06-14T17:35:23;8.40;;;7.83;;
2622;SDS011;1321;48.690;9.022;2023-06-14T17:38:58;7.75;;;7.30;;
2622;SDS011;1321;48.690;9.022;2023-06-14T17:41:50;8.70;;;8.10;;
2622;SDS011;1321;48.690;9.022;2023-06-14T17:44:30;7.90;;;7.50;;
2622;SDS011;1321;48.690;9.022;2023-06-14T18:02:30;7.90;;;7.53;;
2622;SDS011;1321;48.690;9.022;2023-06-14T18:04:58;9.00;;;8.30;;
2622;SDS011;1321;48.690;9.022;2023-06-14T18:08:14;7.43;;;7.13;;
2622;SDS011;1321;48.690;9.022;2023-06-14T18:11:04;8.30;;;7.90;;
2622;SDS011;1321;48.690;9.022;2023-06-14T18:13:44;7.50;;;7.13;;